Time;durP1;ratioP1;P1;durP2;ratioP2;P2;SDS_P1;SDS_P2;PMS_P1;PMS_P2;Temp;Humidity;BMP_temperature;BMP_pressure;BME280_temperature;BME280_humidity;BME280_pressure;Samples;Min_cycle;Max_cycle;Signal;HPM_P1;HPM_P2
2022/11/27 00:01:23;;;;;;;7.90;4.80;;;;;;;2.61;100.00;100969.69;1694182;83;20961;-65
2022/11/27 00:03:51;;;;;;;9.23;5.78;;;;;;;2.76;100.00;100969.45;1695681;83;21084;-69
2022/11/27 00:06:20;;;;;;;8.85;5.72;;;;;;;2.62;100.00;100970.51;1697783;83;22432;-61
2022/11/27 00:08:49;;;;;;;9.53;5.22;;;;;;;2.57;100.00;100970.01;1696482;83;21001;-62
2022/11/27 00:14:01;;;;;;;7.58;4.85;;;;;;;2.74;100.00;100975.20;1754117;80;21296;-63
2022/11/27 00:16:28;;;;;;;7.53;4.80;;;;;;;2.62;100.00;100972.61;1787162;80;20979;-61
2022/11/27 00:18:56;;;;;;;7.47;5.08;;;;;;;2.59;100.00;100966.39;1771451;79;21012;-62
2022/11/27 00:21:31;;;;;;;7.87;4.85;;;;;;;2.57;100.00;100970.82;1748020;81;21237;-62
2022/11/27 00:23:59;;;;;;;9.40;5.20;;;;;;;2.59;100.00;100970.26;1793719;78;21481;-63
2022/11/27 00:26:27;;;;;;;7.92;5.47;;;;;;;2.66;100.00;100977.88;1773106;80;21465;-63
2022/11/27 00:28:54;;;;;;;8.50;4.65;;;;;;;2.59;100.00;100972.02;1785353;80;21058;-62
2022/11/27 00:31:29;;;;;;;7.72;4.80;;;;;;;2.68;100.00;100972.61;1768943;78;20987;-68
2022/11/27 00:34:02;;;;;;;6.95;4.70;;;;;;;2.66;100.00;100966.77;1753407;81;21869;-62
2022/11/27 00:36:31;;;;;;;9.03;5.58;;;;;;;2.57;100.00;100974.69;1791200;79;21509;-62
2022/11/27 00:38:59;;;;;;;8.13;4.60;;;;;;;2.62;100.00;100973.08;1784471;80;21010;-62
2022/11/27 00:41:28;;;;;;;7.90;5.12;;;;;;;2.69;100.00;100970.41;1783865;78;20941;-62
2022/11/27 00:43:55;;;;;;;8.33;5.40;;;;;;;2.65;100.00;100972.83;1785788;80;21511;-62
2022/11/27 00:46:25;;;;;;;8.78;5.33;;;;;;;2.65;100.00;100972.39;1783138;80;21141;-62
2022/11/27 00:48:52;;;;;;;7.75;5.08;;;;;;;2.65;100.00;100970.25;1798792;78;21066;-61
2022/11/27 00:51:21;;;;;;;9.45;4.90;;;;;;;2.66;100.00;100970.16;1781764;79;20932;-71
2022/11/27 00:53:48;;;;;;;8.15;4.75;;;;;;;2.68;100.00;100969.56;1757013;81;21002;-61
2022/11/27 00:56:18;;;;;;;7.65;4.95;;;;;;;2.70;100.00;100970.75;1757095;81;20888;-62
2022/11/27 00:58:45;;;;;;;6.55;4.40;;;;;;;2.74;100.00;100973.45;1756972;81;21525;-61
2022/11/27 01:01:22;;;;;;;7.40;4.60;;;;;;;2.68;100.00;100966.98;1755929;81;20982;-70
2022/11/27 01:03:49;;;;;;;7.08;4.37;;;;;;;2.71;100.00;100971.56;1757137;81;21453;-61
2022/11/27 01:06:17;;;;;;;6.87;4.78;;;;;;;2.67;100.00;100971.79;1756868;81;21497;-61
2022/11/27 01:08:46;;;;;;;7.22;4.62;;;;;;;2.72;100.00;100969.34;1757324;81;21054;-70
2022/11/27 01:11:20;;;;;;;8.05;4.70;;;;;;;2.82;100.00;100976.73;1755970;81;21261;-70
2022/11/27 01:13:48;;;;;;;7.05;4.05;;;;;;;2.85;100.00;100973.46;1757073;81;21033;-61
2022/11/27 01:16:18;;;;;;;6.78;4.08;;;;;;;2.89;100.00;100975.34;1756916;81;20975;-61
2022/11/27 01:18:46;;;;;;;7.17;4.60;;;;;;;2.91;100.00;100974.73;1756192;81;21469;-69
2022/11/27 01:21:15;;;;;;;6.65;4.22;;;;;;;2.88;100.00;100969.84;1756363;81;21544;-62
2022/11/27 01:23:42;;;;;;;8.85;5.03;;;;;;;2.88;100.00;100977.57;1760127;80;21311;-63
2022/11/27 01:26:10;;;;;;;8.35;5.20;;;;;;;2.90;100.00;100975.69;1788007;80;21417;-61
2022/11/27 01:28:38;;;;;;;7.00;4.30;;;;;;;2.90;100.00;100978.26;1787830;79;21453;-70
2022/11/27 01:31:17;;;;;;;6.15;4.17;;;;;;;2.91;100.00;100976.84;1787614;80;21046;-68
2022/11/27 01:33:45;;;;;;;7.35;5.03;;;;;;;2.93;100.00;100974.98;1787589;79;20951;-62
2022/11/27 01:36:14;;;;;;;8.58;5.17;;;;;;;2.94;100.00;100977.09;1788131;79;21247;-62
2022/11/27 01:38:41;;;;;;;6.60;4.00;;;;;;;2.91;100.00;100969.13;1787459;79;20867;-61
2022/11/27 01:41:22;;;;;;;8.38;4.17;;;;;;;2.91;100.00;100969.13;1787649;80;21533;-61
2022/11/27 01:43:53;;;;;;;6.67;4.08;;;;;;;2.90;100.00;100971.35;1788046;78;21022;-62
2022/11/27 01:46:39;;;;;;;7.50;4.50;;;;;;;2.86;100.00;100967.84;1788109;79;20983;-63
2022/11/27 01:49:31;;;;;;;7.50;4.37;;;;;;;2.85;100.00;100959.77;1788251;79;21869;-62
2022/11/27 01:52:08;;;;;;;8.30;4.37;;;;;;;2.85;100.00;100971.36;1787714;78;20951;-61
2022/11/27 01:54:49;;;;;;;6.55;3.92;;;;;;;2.82;100.00;100967.25;1788212;80;20969;-61
2022/11/27 01:57:34;;;;;;;7.50;4.70;;;;;;;2.84;100.00;100972.27;1787232;79;20951;-70
2022/11/27 02:00:03;;;;;;;8.18;3.85;;;;;;;2.85;100.00;100970.07;1788179;79;20924;-62
2022/11/27 02:02:33;;;;;;;6.40;3.92;;;;;;;2.84;100.00;100974.41;1782511;79;25170;-61
2022/11/27 02:05:02;;;;;;;7.97;4.20;;;;;;;2.83;100.00;100975.79;1756284;81;21019;-70
2022/11/27 02:07:29;;;;;;;7.65;3.90;;;;;;;2.84;100.00;100981.28;1756384;81;21349;-69
2022/11/27 02:09:57;;;;;;;5.87;3.67;;;;;;;2.84;100.00;100978.70;1756966;81;22225;-61
2022/11/27 02:12:27;;;;;;;7.00;3.52;;;;;;;2.84;100.00;100983.42;1778596;80;20968;-62
2022/11/27 02:15:20;;;;;;;6.92;3.90;;;;;;;2.85;100.00;100981.66;1787774;79;21224;-68
2022/11/27 02:18:40;;;;;;;6.08;3.80;;;;;;;2.86;100.00;100985.86;1788200;80;20966;-63
2022/11/27 02:21:40;;;;;;;6.00;3.87;;;;;;;2.85;100.00;100988.91;1788245;79;21089;-61
2022/11/27 02:24:21;;;;;;;9.58;3.80;;;;;;;2.85;100.00;100988.91;1787595;79;22522;-61
2022/11/27 02:27:26;;;;;;;6.40;3.80;;;;;;;2.83;100.00;100988.19;1788529;79;20975;-62
2022/11/27 02:29:56;;;;;;;5.62;3.47;;;;;;;2.82;100.00;100983.98;1785300;80;21166;-61
2022/11/27 02:32:39;;;;;;;7.87;3.98;;;;;;;2.84;100.00;100986.44;1788266;79;20971;-60
2022/11/27 02:35:15;;;;;;;6.92;4.10;;;;;;;2.84;100.00;100986.44;1787628;79;20955;-61
2022/11/27 02:37:49;;;;;;;6.92;4.05;;;;;;;2.83;100.00;100992.53;1774653;78;20986;-60
2022/11/27 02:40:38;;;;;;;7.85;3.75;;;;;;;2.82;100.00;100995.57;1756387;81;21027;-62
2022/11/27 02:43:09;;;;;;;6.53;3.58;;;;;;;2.84;100.00;101001.44;1756923;81;21223;-62
2022/11/27 02:45:46;;;;;;;8.20;4.10;;;;;;;2.87;100.00;101002.95;1756488;81;20962;-69
2022/11/27 02:48:15;;;;;;;6.72;3.87;;;;;;;2.86;100.00;101002.60;1757519;81;21011;-61
2022/11/27 02:50:43;;;;;;;6.47;3.50;;;;;;;2.86;100.00;101011.14;1756689;81;20967;-61
2022/11/27 02:53:31;;;;;;;7.00;3.75;;;;;;;2.87;100.00;101003.77;1778870;80;21514;-69
2022/11/27 02:55:58;;;;;;;5.90;3.50;;;;;;;2.88;100.00;101011.05;1787844;80;21253;-69
2022/11/27 02:58:26;;;;;;;5.60;3.72;;;;;;;2.88;100.00;101008.00;1787993;80;21045;-60
2022/11/27 03:00:54;;;;;;;6.05;3.50;;;;;;;2.90;100.00;101009.98;1787728;80;20924;-68
2022/11/27 03:03:25;;;;;;;5.47;3.33;;;;;;;2.91;100.00;101008.22;1787907;79;20983;-62
2022/11/27 03:05:55;;;;;;;6.67;4.30;;;;;;;2.90;100.00;101009.16;1788354;80;20892;-68
2022/11/27 03:08:36;;;;;;;6.65;3.95;;;;;;;2.89;100.00;101003.67;1787890;80;21251;-60
2022/11/27 03:11:07;;;;;;;9.38;3.47;;;;;;;2.87;100.00;101000.38;1771987;80;20923;-60
2022/11/27 03:13:40;;;;;;;5.42;3.35;;;;;;;2.98;100.00;100999.09;1757249;80;20872;-60
2022/11/27 03:16:27;;;;;;;6.85;3.60;;;;;;;2.76;100.00;101004.21;1756658;81;20962;-61
2022/11/27 03:19:24;;;;;;;6.55;3.75;;;;;;;2.71;100.00;101009.71;1756804;81;21505;-63
2022/11/27 03:21:58;;;;;;;10.08;3.92;;;;;;;2.72;100.00;101013.10;1756255;80;21264;-61
2022/11/27 03:24:26;;;;;;;6.58;3.87;;;;;;;2.71;100.00;101010.18;1755402;81;20971;-60
2022/11/27 03:26:54;;;;;;;5.37;3.27;;;;;;;2.69;100.00;101020.60;1756810;81;21612;-61
2022/11/27 03:29:30;;;;;;;7.53;3.92;;;;;;;2.70;100.00;101025.28;1756511;81;21039;-60
2022/11/27 03:31:57;;;;;;;5.80;3.60;;;;;;;2.83;100.00;101023.42;1756881;81;20904;-67
2022/11/27 03:34:25;;;;;;;8.00;4.12;;;;;;;2.89;100.00;101024.27;1756555;81;21289;-62
2022/11/27 03:36:52;;;;;;;5.53;3.45;;;;;;;2.87;100.00;101028.22;1765184;81;21521;-64
2022/11/27 03:39:21;;;;;;;6.35;3.30;;;;;;;2.90;100.00;101033.16;1756356;81;20959;-60
2022/11/27 03:42:06;;;;;;;5.25;3.12;;;;;;;2.92;100.00;101027.91;1756971;81;21117;-61
2022/11/27 03:44:58;;;;;;;7.15;4.35;;;;;;;2.96;100.00;101032.36;1782340;80;20953;-60
2022/11/27 03:47:56;;;;;;;4.87;3.08;;;;;;;2.97;100.00;101032.23;1757218;80;21225;-65
2022/11/27 03:51:01;;;;;;;6.12;3.42;;;;;;;2.98;100.00;101031.29;1786482;79;21512;-61
2022/11/27 03:53:39;;;;;;;6.50;3.90;;;;;;;2.93;100.00;101026.49;1756856;81;21524;-70
2022/11/27 03:56:15;;;;;;;6.65;3.70;;;;;;;2.92;100.00;101035.16;1757124;81;21002;-66
2022/11/27 03:58:51;;;;;;;6.12;3.87;;;;;;;2.93;100.00;101035.98;1756909;81;21085;-62
2022/11/27 04:01:21;;;;;;;6.80;3.52;;;;;;;2.95;100.00;101035.38;1756253;81;20884;-68
2022/11/27 04:03:48;;;;;;;6.22;3.67;;;;;;;2.92;100.00;101033.05;1764680;78;20970;-60
2022/11/27 04:06:16;;;;;;;7.05;3.70;;;;;;;2.95;100.00;101035.38;1787389;80;20992;-60
2022/11/27 04:08:45;;;;;;;8.93;3.60;;;;;;;2.99;100.00;101035.50;1770847;80;20955;-60
2022/11/27 04:11:13;;;;;;;6.30;3.70;;;;;;;2.98;100.00;101031.77;1787806;79;20903;-68
2022/11/27 04:13:41;;;;;;;6.37;3.50;;;;;;;2.98;100.00;101039.02;1787817;78;21238;-61
2022/11/27 04:16:09;;;;;;;6.05;3.42;;;;;;;2.95;100.00;101034.09;1785443;80;20899;-60
2022/11/27 04:18:37;;;;;;;7.33;3.75;;;;;;;2.93;100.00;101034.69;1786530;80;21540;-60
2022/11/27 04:21:05;;;;;;;7.50;3.15;;;;;;;2.91;100.00;101030.92;1786531;80;21521;-60
2022/11/27 04:23:32;;;;;;;6.75;3.60;;;;;;;2.90;100.00;101039.59;1785858;80;21053;-60
2022/11/27 04:26:00;;;;;;;5.90;2.92;;;;;;;2.87;100.00;101034.66;1786414;80;21088;-61
2022/11/27 04:28:27;;;;;;;6.53;3.50;;;;;;;2.84;100.00;101039.22;1786018;79;20947;-61
2022/11/27 04:30:55;;;;;;;7.58;4.30;;;;;;;2.84;100.00;101035.36;1786474;79;20940;-61
2022/11/27 04:33:23;;;;;;;8.50;3.70;;;;;;;2.90;100.00;101035.73;1786454;79;20888;-67
2022/11/27 04:35:50;;;;;;;5.75;3.92;;;;;;;2.88;100.00;101040.19;1786172;79;21047;-60
2022/11/27 04:38:19;;;;;;;6.50;3.45;;;;;;;2.85;100.00;101034.44;1770347;78;21218;-60
2022/11/27 04:40:47;;;;;;;6.55;3.70;;;;;;;2.84;100.00;101049.52;1765265;80;21537;-61
2022/11/27 04:43:15;;;;;;;9.13;3.70;;;;;;;2.78;100.00;101043.08;1786444;79;20978;-60
2022/11/27 04:45:43;;;;;;;5.95;3.22;;;;;;;2.77;100.00;101047.06;1785841;80;20948;-60
2022/11/27 04:48:10;;;;;;;6.15;3.10;;;;;;;2.75;100.00;101045.06;1768204;80;22259;-62
2022/11/27 04:50:37;;;;;;;5.85;3.50;;;;;;;2.77;100.00;101049.64;1754965;80;21312;-60
2022/11/27 04:53:05;;;;;;;7.03;3.55;;;;;;;2.79;100.00;101047.76;1755341;80;21508;-60
2022/11/27 04:55:32;;;;;;;6.45;3.70;;;;;;;2.87;100.00;101050.11;1754637;81;21465;-62
2022/11/27 04:58:00;;;;;;;7.00;3.52;;;;;;;2.87;100.00;101052.69;1742246;81;20976;-60
2022/11/27 05:00:28;;;;;;;6.62;3.52;;;;;;;2.90;100.00;101054.23;1759414;80;21505;-60
2022/11/27 05:02:57;;;;;;;6.28;4.28;;;;;;;2.85;100.00;101057.62;1786456;79;22539;-60
2022/11/27 05:05:26;;;;;;;5.72;3.35;;;;;;;2.84;100.00;101055.95;1785750;79;21449;-62
2022/11/27 05:07:54;;;;;;;6.85;3.83;;;;;;;2.84;100.00;101054.23;1764162;80;21341;-62
2022/11/27 05:10:21;;;;;;;6.08;3.08;;;;;;;2.85;100.00;101052.00;1754311;81;20964;-61
2022/11/27 05:12:49;;;;;;;5.08;3.10;;;;;;;2.81;100.00;101054.92;1755254;81;20978;-61
2022/11/27 05:15:17;;;;;;;4.75;2.45;;;;;;;2.83;100.00;101054.32;1755190;80;22635;-70
2022/11/27 05:17:46;;;;;;;10.78;4.35;;;;;;;2.83;100.00;101056.89;1754681;80;21038;-62
2022/11/27 05:20:13;;;;;;;6.35;3.67;;;;;;;2.82;100.00;101055.27;1771881;80;20963;-62
2022/11/27 05:22:41;;;;;;;5.42;3.12;;;;;;;2.79;100.00;101055.02;1786261;79;21054;-62
2022/11/27 05:25:09;;;;;;;5.25;2.83;;;;;;;2.80;100.00;101055.36;1786418;79;20967;-70
2022/11/27 05:27:36;;;;;;;4.85;2.62;;;;;;;2.83;100.00;101053.03;1785925;79;21231;-62
2022/11/27 05:30:05;;;;;;;5.87;3.45;;;;;;;2.81;100.00;101053.63;1786066;79;21066;-63
2022/11/27 05:32:33;;;;;;;4.75;2.77;;;;;;;2.83;100.00;101052.56;1786474;79;21007;-61
2022/11/27 05:35:00;;;;;;;5.80;3.00;;;;;;;2.84;100.00;101045.22;1786405;80;20916;-62
2022/11/27 05:37:27;;;;;;;6.20;2.83;;;;;;;2.88;100.00;101052.25;1785633;80;20968;-61
2022/11/27 05:39:55;;;;;;;6.45;2.83;;;;;;;2.93;100.00;101054.81;1786406;79;22434;-61
2022/11/27 05:42:22;;;;;;;6.17;3.30;;;;;;;2.79;100.00;101055.48;1759724;79;20963;-60
2022/11/27 05:44:49;;;;;;;4.70;2.72;;;;;;;2.79;100.00;101059.34;1755147;81;21077;-61
2022/11/27 05:47:17;;;;;;;4.85;2.72;;;;;;;2.77;100.00;101059.94;1755468;81;20983;-62
2022/11/27 05:49:45;;;;;;;4.92;2.83;;;;;;;2.85;100.00;101059.72;1754656;81;20979;-61
2022/11/27 05:52:12;;;;;;;6.53;3.08;;;;;;;2.87;100.00;101060.88;1755163;81;22358;-62
2022/11/27 05:54:39;;;;;;;5.17;3.27;;;;;;;2.86;100.00;101054.91;1773610;80;20912;-63
2022/11/27 05:57:07;;;;;;;5.35;3.08;;;;;;;2.88;100.00;101060.79;1786377;79;21159;-61
2022/11/27 05:59:34;;;;;;;7.22;3.77;;;;;;;2.90;100.00;101063.23;1761247;79;21603;-70
2022/11/27 06:02:01;;;;;;;7.90;4.30;;;;;;;2.92;100.00;101067.35;1755277;81;20947;-60
2022/11/27 06:04:28;;;;;;;6.83;4.05;;;;;;;2.91;100.00;101070.02;1754806;81;21257;-63
2022/11/27 06:06:55;;;;;;;6.37;3.35;;;;;;;2.95;100.00;101069.33;1742213;81;22245;-62
2022/11/27 06:09:23;;;;;;;6.40;3.12;;;;;;;3.02;100.00;101075.67;1755294;81;20991;-61
2022/11/27 06:11:50;;;;;;;5.33;3.10;;;;;;;3.04;100.00;101073.34;1754724;81;21126;-62
2022/11/27 06:14:18;;;;;;;5.30;2.87;;;;;;;3.07;100.00;101074.84;1755318;81;21037;-61
2022/11/27 06:16:45;;;;;;;5.75;3.33;;;;;;;3.05;100.00;101074.98;1756209;80;21345;-61
2022/11/27 06:19:13;;;;;;;6.25;3.12;;;;;;;3.06;100.00;101074.03;1757069;81;20884;-62
2022/11/27 06:21:45;;;;;;;5.83;3.02;;;;;;;3.08;100.00;101073.47;1757189;81;20927;-62
2022/11/27 06:24:12;;;;;;;6.33;3.58;;;;;;;3.06;100.00;101068.88;1784860;80;20889;-63
2022/11/27 06:26:40;;;;;;;5.12;2.80;;;;;;;3.00;100.00;101074.51;1787883;80;21098;-61
2022/11/27 06:29:08;;;;;;;5.72;3.40;;;;;;;2.99;100.00;101078.00;1788313;79;21137;-62
2022/11/27 06:31:36;;;;;;;5.50;3.22;;;;;;;3.03;100.00;101078.15;1788272;80;20971;-64
2022/11/27 06:34:03;;;;;;;5.87;3.00;;;;;;;3.07;100.00;101076.98;1787927;80;21474;-71
2022/11/27 06:36:34;;;;;;;5.70;3.30;;;;;;;3.09;100.00;101080.25;1787666;80;21582;-65
2022/11/27 06:39:03;;;;;;;5.58;3.15;;;;;;;3.28;100.00;101078.41;1782363;79;20999;-65
2022/11/27 06:41:31;;;;;;;5.42;3.33;;;;;;;3.13;100.00;101081.66;1788418;80;21826;-65
2022/11/27 06:43:59;;;;;;;5.53;3.37;;;;;;;3.10;100.00;101080.59;1787993;79;20872;-72
2022/11/27 06:46:26;;;;;;;6.95;4.05;;;;;;;3.16;100.00;101084.02;1787541;80;21564;-64
2022/11/27 06:48:54;;;;;;;7.25;3.10;;;;;;;3.15;100.00;101086.24;1788244;80;22330;-63
2022/11/27 06:51:25;;;;;;;6.70;2.87;;;;;;;3.15;100.00;101087.53;1788135;79;21030;-63
2022/11/27 06:53:52;;;;;;;5.70;3.30;;;;;;;3.16;100.00;101087.87;1788148;79;21118;-72
2022/11/27 06:56:23;;;;;;;6.05;3.65;;;;;;;3.20;100.00;101092.81;1787350;79;20907;-72
2022/11/27 06:58:56;;;;;;;6.15;3.30;;;;;;;3.22;100.00;101094.78;1788496;79;21070;-64
2022/11/27 07:01:24;;;;;;;6.17;3.40;;;;;;;3.30;100.00;101095.06;1788359;79;21561;-63
2022/11/27 07:03:52;;;;;;;5.45;3.60;;;;;;;3.29;100.00;101093.39;1787602;79;20911;-64
2022/11/27 07:06:22;;;;;;;7.05;3.83;;;;;;;3.29;100.00;101098.08;1787697;80;21252;-64
2022/11/27 07:08:51;;;;;;;;;;;;;;;3.29;100.00;101097.26;1791269;80;21133;-65
2022/11/27 07:11:21;;;;;;;4.87;2.52;;;;;;;3.32;100.00;101098.33;1788246;79;20106;-63
2022/11/27 07:13:48;;;;;;;5.92;3.37;;;;;;;3.32;100.00;101101.72;1787775;79;20911;-64
2022/11/27 07:16:16;;;;;;;5.90;2.87;;;;;;;3.32;100.00;101095.75;1787972;80;21002;-73
2022/11/27 07:18:52;;;;;;;5.28;3.05;;;;;;;3.35;100.00;101089.08;1787848;80;21301;-64
2022/11/27 07:21:19;;;;;;;6.20;3.15;;;;;;;3.40;100.00;101094.70;1788335;80;21389;-64
2022/11/27 07:23:48;;;;;;;6.58;3.30;;;;;;;3.43;100.00;101094.47;1787652;79;20911;-64
2022/11/27 07:26:18;;;;;;;6.47;3.50;;;;;;;3.54;100.00;101090.61;1787800;79;21035;-70
2022/11/27 07:28:45;;;;;;;6.03;3.30;;;;;;;3.50;100.00;101100.80;1788267;79;20999;-62
2022/11/27 07:31:15;;;;;;;6.20;3.35;;;;;;;3.54;100.00;101099.63;1788238;80;21278;-62
2022/11/27 07:33:43;;;;;;;5.78;3.10;;;;;;;3.57;100.00;101107.61;1787713;80;20940;-62
2022/11/27 07:36:16;;;;;;;6.42;3.10;;;;;;;3.59;100.00;101107.83;1788474;79;22374;-67
2022/11/27 07:38:44;;;;;;;5.97;3.35;;;;;;;3.60;100.00;101109.48;1788148;79;21717;-62
2022/11/27 07:41:11;;;;;;;5.65;3.30;;;;;;;3.61;100.00;101107.25;1788242;79;20825;-62
2022/11/27 07:43:40;;;;;;;5.72;3.00;;;;;;;3.61;100.00;101111.59;1769967;80;21150;-66
2022/11/27 07:46:11;;;;;;;6.33;3.45;;;;;;;3.62;100.00;101113.23;1787910;79;20876;-66
2022/11/27 07:48:39;;;;;;;5.37;3.40;;;;;;;3.62;100.00;101112.75;1788344;79;21663;-62
2022/11/27 07:51:08;;;;;;;5.65;3.55;;;;;;;3.65;100.00;101112.53;1788185;80;21030;-62
2022/11/27 07:53:37;;;;;;;5.75;3.27;;;;;;;3.71;100.00;101115.09;1787601;79;20928;-62
2022/11/27 07:56:07;;;;;;;7.12;4.53;;;;;;;3.74;100.00;101112.75;1788268;79;21145;-71
2022/11/27 07:58:34;;;;;;;6.40;4.00;;;;;;;3.79;100.00;101117.08;1787860;79;21393;-61
2022/11/27 08:01:07;;;;;;;5.37;3.15;;;;;;;3.81;100.00;101117.33;1788013;79;20976;-62
2022/11/27 08:03:34;;;;;;;6.55;3.52;;;;;;;3.87;100.00;101118.63;1787909;80;20935;-62
2022/11/27 08:06:01;;;;;;;5.78;3.42;;;;;;;3.92;100.00;101115.21;1788235;80;21054;-62
2022/11/27 08:08:29;;;;;;;5.72;3.50;;;;;;;3.92;100.00;101115.69;1788525;80;21201;-64
2022/11/27 08:10:57;;;;;;;4.45;2.50;;;;;;;3.90;100.00;101117.92;1788113;80;20919;-62
2022/11/27 08:13:25;;;;;;;8.15;3.40;;;;;;;3.87;100.00;101118.16;1787852;79;20975;-71
2022/11/27 08:15:52;;;;;;;6.12;3.37;;;;;;;3.87;100.00;101123.31;1788220;80;21529;-62
2022/11/27 08:18:21;;;;;;;5.72;3.45;;;;;;;3.88;100.00;101126.70;1787847;79;20963;-61
2022/11/27 08:20:48;;;;;;;5.12;3.02;;;;;;;3.93;100.00;101127.64;1788106;79;21251;-61
2022/11/27 08:23:16;;;;;;;5.83;3.42;;;;;;;3.98;100.00;101134.09;1788243;80;21552;-61
2022/11/27 08:25:43;;;;;;;6.85;3.52;;;;;;;4.01;100.00;101128.67;1787655;79;20943;-62
2022/11/27 08:28:11;;;;;;;4.67;3.07;;;;;;;4.03;100.00;101131.97;1787666;78;21117;-64
2022/11/27 08:30:41;;;;;;;5.10;3.08;;;;;;;4.06;100.00;101133.03;1792028;78;21507;-62
2022/11/27 08:33:09;;;;;;;5.90;3.20;;;;;;;4.10;100.00;101135.72;1791939;78;21250;-62
2022/11/27 08:35:38;;;;;;;5.87;3.60;;;;;;;4.15;100.00;101135.35;1784907;78;21451;-65
2022/11/27 08:38:06;;;;;;;5.93;3.40;;;;;;;4.18;100.00;101130.44;1768506;80;21417;-73
2022/11/27 08:40:34;;;;;;;6.42;3.70;;;;;;;4.19;100.00;101136.75;1777107;80;22656;-71
2022/11/27 08:43:01;;;;;;;5.13;2.90;;;;;;;4.18;100.00;101135.59;1765735;80;20994;-64
2022/11/27 08:45:28;;;;;;;4.70;2.77;;;;;;;4.14;100.00;101130.67;1768494;80;21168;-70
2022/11/27 08:47:55;;;;;;;4.93;2.80;;;;;;;4.13;100.00;101132.91;1788161;80;21049;-64
2022/11/27 08:50:22;;;;;;;8.00;4.62;;;;;;;4.13;100.00;101127.75;1770046;80;21478;-64
2022/11/27 08:52:50;;;;;;;7.37;4.27;;;;;;;4.13;100.00;101135.48;1788337;79;21553;-64
2022/11/27 08:55:18;;;;;;;6.90;4.37;;;;;;;4.11;100.00;101131.38;1791193;78;21033;-70
2022/11/27 08:57:46;;;;;;;5.63;3.40;;;;;;;4.12;100.00;101131.72;1796913;78;21211;-64
2022/11/27 09:00:15;;;;;;;6.77;3.67;;;;;;;4.15;100.00;101126.32;1811791;78;21766;-73
2022/11/27 09:02:43;;;;;;;6.72;4.30;;;;;;;4.14;100.00;101130.67;1790685;78;21424;-66
2022/11/27 09:05:10;;;;;;;7.17;3.98;;;;;;;4.14;100.00;101131.95;1777935;80;20940;-64
2022/11/27 09:07:39;;;;;;;5.97;3.60;;;;;;;4.17;100.00;101133.93;1787657;78;20980;-64
2022/11/27 09:10:08;;;;;;;6.20;3.92;;;;;;;4.15;100.00;101129.72;1796517;78;21198;-73
2022/11/27 09:12:35;;;;;;;6.60;4.15;;;;;;;4.18;100.00;101133.02;1806038;78;20994;-65
2022/11/27 09:15:04;;;;;;;7.43;4.17;;;;;;;4.18;100.00;101129.14;1807523;78;21626;-64
2022/11/27 09:17:31;;;;;;;6.10;3.20;;;;;;;4.26;100.00;101135.81;1786433;80;21305;-65
2022/11/27 09:20:00;;;;;;;6.17;3.50;;;;;;;4.27;100.00;101139.55;1786632;79;21092;-65
2022/11/27 09:22:27;;;;;;;5.58;3.37;;;;;;;4.27;100.00;101141.31;1785687;80;21247;-65
2022/11/27 09:24:55;;;;;;;5.83;3.17;;;;;;;4.30;100.00;101147.05;1786349;80;20947;-65
2022/11/27 09:27:22;;;;;;;5.30;3.20;;;;;;;4.35;100.00;101141.52;1786572;80;21029;-72
2022/11/27 09:29:49;;;;;;;5.53;3.35;;;;;;;4.37;100.00;101148.69;1785984;80;21393;-64
2022/11/27 09:32:17;;;;;;;6.07;3.63;;;;;;;4.39;100.00;101148.93;1785845;79;20888;-64
2022/11/27 09:34:44;;;;;;;7.50;4.37;;;;;;;4.36;100.00;101145.30;1786469;80;21710;-65
2022/11/27 09:37:11;;;;;;;6.40;3.60;;;;;;;4.34;100.00;101146.34;1786224;79;21269;-64
2022/11/27 09:39:38;;;;;;;4.97;3.25;;;;;;;4.36;100.00;101152.22;1785857;80;21673;-64
2022/11/27 09:42:11;;;;;;;7.28;3.55;;;;;;;4.34;100.00;101149.75;1786071;80;21078;-71
2022/11/27 09:44:50;;;;;;;6.80;4.00;;;;;;;4.34;100.00;101147.64;1724926;81;21280;-64
2022/11/27 09:47:46;;;;;;;8.43;4.10;;;;;;;4.35;100.00;101147.50;1742739;82;21230;-70
2022/11/27 09:50:29;;;;;;;6.13;3.37;;;;;;;4.37;100.00;101146.92;1743249;81;21053;-64
2022/11/27 09:53:07;;;;;;;4.50;2.97;;;;;;;4.39;100.00;101143.77;1749097;81;21199;-64
2022/11/27 09:55:45;;;;;;;6.40;3.47;;;;;;;4.47;100.00;101147.03;1743049;82;21796;-64
2022/11/27 09:58:39;;;;;;;5.50;2.97;;;;;;;4.51;100.00;101138.55;1792168;79;20963;-73
2022/11/27 10:01:15;;;;;;;7.90;3.60;;;;;;;4.54;100.00;101146.88;1807826;79;21261;-64
2022/11/27 10:03:43;;;;;;;5.73;3.37;;;;;;;4.57;100.00;101141.95;1807398;79;21778;-70
2022/11/27 10:06:28;;;;;;;8.93;3.87;;;;;;;4.54;100.00;101142.18;1807273;79;21252;-64
2022/11/27 10:09:11;;;;;;;6.28;3.52;;;;;;;4.47;100.00;101140.58;1807303;78;21314;-64
2022/11/27 10:11:58;;;;;;;7.63;3.90;;;;;;;4.44;100.00;101143.40;1807017;78;20980;-63
2022/11/27 10:14:56;;;;;;;6.80;3.77;;;;;;;4.44;100.00;101140.00;1807604;79;21662;-63
2022/11/27 10:17:34;;;;;;;5.17;3.02;;;;;;;4.43;100.00;101138.34;1806541;78;21816;-72
2022/11/27 10:20:38;;;;;;;6.07;3.83;;;;;;;4.45;100.00;101134.70;1801527;79;21025;-63
2022/11/27 10:23:41;;;;;;;5.67;3.00;;;;;;;4.47;100.00;101130.25;1787229;79;21677;-65
2022/11/27 10:26:21;;;;;;;6.53;3.80;;;;;;;4.53;100.00;101129.75;1756661;80;21337;-71
2022/11/27 10:29:05;;;;;;;4.73;3.00;;;;;;;4.55;100.00;101127.88;1743323;82;21222;-66
2022/11/27 10:31:36;;;;;;;6.92;4.10;;;;;;;4.55;100.00;101129.17;1743288;82;20996;-73
2022/11/27 10:34:08;;;;;;;8.63;4.25;;;;;;;4.52;100.00;101130.70;1742681;82;21641;-71
2022/11/27 10:36:43;;;;;;;7.27;4.30;;;;;;;4.53;100.00;101129.75;1741868;82;21090;-65
2022/11/27 10:39:27;;;;;;;7.00;4.10;;;;;;;4.50;100.00;101135.15;1743463;82;21257;-64
2022/11/27 10:42:00;;;;;;;7.05;4.10;;;;;;;4.49;100.00;101127.06;1742140;82;21266;-66
2022/11/27 10:44:31;;;;;;;7.73;4.10;;;;;;;4.48;100.00;101133.17;1743122;82;21486;-65
2022/11/27 10:47:04;;;;;;;8.98;4.33;;;;;;;4.49;100.00;101130.94;1742786;82;21215;-66
2022/11/27 10:49:32;;;;;;;4.62;3.20;;;;;;;4.47;100.00;101126.38;1742915;82;20940;-72
2022/11/27 10:51:59;;;;;;;5.53;3.75;;;;;;;4.51;100.00;101128.22;1743296;82;20975;-64
2022/11/27 10:54:31;;;;;;;7.22;3.67;;;;;;;4.50;100.00;101127.88;1744378;79;21253;-64
2022/11/27 10:57:43;;;;;;;6.35;3.85;;;;;;;4.47;100.00;101135.42;1757706;79;27732;-63
2022/11/27 11:00:22;;;;;;;5.47;3.30;;;;;;;4.48;100.00;101130.59;1774863;79;22407;-65
2022/11/27 11:03:02;;;;;;;6.47;3.33;;;;;;;4.46;100.00;101131.17;1770219;80;21271;-72
2022/11/27 11:05:30;;;;;;;6.23;3.77;;;;;;;4.44;100.00;101130.48;1772941;80;21116;-66
2022/11/27 11:08:17;;;;;;;5.80;4.00;;;;;;;4.45;100.00;101129.55;1772644;80;21766;-65
2022/11/27 11:10:57;;;;;;;5.63;3.47;;;;;;;4.46;100.00;101128.59;1772807;80;21334;-64
2022/11/27 11:13:30;;;;;;;7.13;3.80;;;;;;;4.45;100.00;101132.13;1772801;80;21573;-66
2022/11/27 11:16:03;;;;;;;6.30;3.52;;;;;;;4.44;100.00;101137.42;1774053;80;21185;-63
2022/11/27 11:18:34;;;;;;;6.50;3.12;;;;;;;4.43;100.00;101135.28;1783440;78;20927;-64
2022/11/27 11:21:05;;;;;;;5.23;2.70;;;;;;;4.46;100.00;101134.23;1786578;80;21287;-71
2022/11/27 11:23:38;;;;;;;5.43;3.43;;;;;;;4.45;100.00;101134.70;1788647;80;21173;-63
2022/11/27 11:26:14;;;;;;;5.67;3.00;;;;;;;4.46;100.00;101136.34;1787986;80;21342;-66
2022/11/27 11:28:51;;;;;;;3.70;2.40;;;;;;;4.51;100.00;101135.52;1788008;80;21334;-68
2022/11/27 11:31:21;;;;;;;7.63;5.37;;;;;;;4.52;100.00;101135.86;1788937;80;21187;-64
2022/11/27 11:33:54;;;;;;;7.40;4.60;;;;;;;4.49;100.00;101143.03;1787485;80;21215;-72
2022/11/27 11:36:21;;;;;;;8.47;6.60;;;;;;;4.48;100.00;101144.80;1788272;80;21001;-66
2022/11/27 11:38:49;;;;;;;11.77;8.17;;;;;;;4.47;100.00;101148.77;1789281;80;21278;-64
2022/11/27 11:41:22;;;;;;;6.27;4.40;;;;;;;4.46;100.00;101151.83;1788243;80;21219;-64
2022/11/27 11:43:58;;;;;;;10.00;6.23;;;;;;;4.46;100.00;101149.72;1786848;80;21232;-65
2022/11/27 11:46:28;;;;;;;5.33;3.13;;;;;;;4.47;100.00;101156.07;1787916;80;21641;-64
2022/11/27 11:49:03;;;;;;;6.53;3.33;;;;;;;4.45;100.00;101154.06;1788266;80;21127;-64